sensor_id;sensor_type;location;lat;lon;timestamp;pressure;altitude;pressure_sealevel;temperature;humidity
77749;BME280;66938;52.084;5.228;2023-05-29T00:00:56;102567.0;;;12.85;70.77
77749;BME280;66938;52.084;5.228;2023-05-29T00:02:32;102573.0;;;12.89;70.0
77749;BME280;66938;52.084;5.228;2023-05-29T00:04:08;102573.0;;;12.87;70.11
77749;BME280;66938;52.084;5.228;2023-05-29T00:05:44;102572.0;;;12.85;70.11
77749;BME280;66938;52.084;5.228;2023-05-29T00:08:57;102572.0;;;12.81;69.86
77749;BME280;66938;52.084;5.228;2023-05-29T00:10:33;102570.0;;;12.78;69.34
77749;BME280;66938;52.084;5.228;2023-05-29T00:12:09;102564.00000000001;;;12.73;69.73
77749;BME280;66938;52.084;5.228;2023-05-29T00:15:21;102559.99999999999;;;12.73;70.0
77749;BME280;66938;52.084;5.228;2023-05-29T00:16:57;102565.00000000001;;;12.74;70.41
77749;BME280;66938;52.084;5.228;2023-05-29T00:18:33;102567.0;;;12.7;70.28
77749;BME280;66938;52.084;5.228;2023-05-29T00:21:47;102561.99999999999;;;12.63;70.77
77749;BME280;66938;52.084;5.228;2023-05-29T00:23:23;102558.99999999999;;;12.58;71.11
77749;BME280;66938;52.084;5.228;2023-05-29T00:24:59;102564.00000000001;;;12.56;71.97
77749;BME280;66938;52.084;5.228;2023-05-29T00:28:11;102569.0;;;12.56;70.91
77749;BME280;66938;52.084;5.228;2023-05-29T00:29:47;102567.0;;;12.54;70.08
77749;BME280;66938;52.084;5.228;2023-05-29T00:31:23;102567.0;;;12.55;70.02
77749;BME280;66938;52.084;5.228;2023-05-29T00:33:00;102568.0;;;12.51;71.0
77749;BME280;66938;52.084;5.228;2023-05-29T00:36:12;102570.0;;;12.47;70.61
77749;BME280;66938;52.084;5.228;2023-05-29T00:37:48;102576.0;;;12.48;70.74
77749;BME280;66938;52.084;5.228;2023-05-29T00:39:24;102580.0;;;12.46;71.28
77749;BME280;66938;52.084;5.228;2023-05-29T00:42:37;102582.0;;;12.38;70.92
77749;BME280;66938;52.084;5.228;2023-05-29T00:44:13;102583.0;;;12.39;70.88
77749;BME280;66938;52.084;5.228;2023-05-29T00:45:49;102584.99999999999;;;12.4;71.28
77749;BME280;66938;52.084;5.228;2023-05-29T00:49:03;102583.0;;;12.39;70.69
77749;BME280;66938;52.084;5.228;2023-05-29T00:50:41;102591.00000000001;;;12.25;70.77
77749;BME280;66938;52.084;5.228;2023-05-29T00:52:19;102592.0;;;12.31;70.78
77749;BME280;66938;52.084;5.228;2023-05-29T00:53:57;102594.0;;;12.28;70.55
77749;BME280;66938;52.084;5.228;2023-05-29T00:57:12;102596.0;;;12.18;71.64
77749;BME280;66938;52.084;5.228;2023-05-29T00:58:50;102599.0;;;12.21;71.08
77749;BME280;66938;52.084;5.228;2023-05-29T01:00:27;102600.0;;;12.11;71.47
77749;BME280;66938;52.084;5.228;2023-05-29T01:03:41;102604.0;;;12.15;70.88
77749;BME280;66938;52.084;5.228;2023-05-29T01:05:17;102597.0;;;12.1;70.8
77749;BME280;66938;52.084;5.228;2023-05-29T01:06:54;102602.0;;;12.02;70.77
77749;BME280;66938;52.084;5.228;2023-05-29T01:08:30;102598.0;;;12.0;70.81
77749;BME280;66938;52.084;5.228;2023-05-29T01:11:50;102598.0;;;11.95;71.16
77749;BME280;66938;52.084;5.228;2023-05-29T01:13:34;102602.0;;;11.92;71.74
77749;BME280;66938;52.084;5.228;2023-05-29T01:15:18;102599.0;;;11.95;72.11
77749;BME280;66938;52.084;5.228;2023-05-29T01:17:04;102602.0;;;11.91;71.41
77749;BME280;66938;52.084;5.228;2023-05-29T01:20:34;102608.0;;;11.89;70.8
77749;BME280;66938;52.084;5.228;2023-05-29T01:22:25;102609.99999999999;;;11.9;71.44
77749;BME280;66938;52.084;5.228;2023-05-29T01:24:24;102606.0;;;11.85;71.91
77749;BME280;66938;52.084;5.228;2023-05-29T01:26:14;102614.00000000001;;;11.83;71.86
77749;BME280;66938;52.084;5.228;2023-05-29T01:27:59;102619.0;;;11.77;72.09
77749;BME280;66938;52.084;5.228;2023-05-29T01:29:39;102623.0;;;11.85;72.45
77749;BME280;66938;52.084;5.228;2023-05-29T01:33:01;102630.0;;;11.83;71.74
77749;BME280;66938;52.084;5.228;2023-05-29T01:34:38;102634.99999999999;;;11.8;71.36
77749;BME280;66938;52.084;5.228;2023-05-29T01:36:14;102633.0;;;11.81;70.58
77749;BME280;66938;52.084;5.228;2023-05-29T01:37:50;102634.99999999999;;;11.71;70.97
77749;BME280;66938;52.084;5.228;2023-05-29T01:41:03;102638.00000000001;;;11.78;71.3
77749;BME280;66938;52.084;5.228;2023-05-29T01:42:41;102633.99999999999;;;11.71;71.11
77749;BME280;66938;52.084;5.228;2023-05-29T01:44:17;102639.00000000001;;;11.75;70.91
77749;BME280;66938;52.084;5.228;2023-05-29T01:47:31;102639.00000000001;;;11.71;70.97
77749;BME280;66938;52.084;5.228;2023-05-29T01:49:08;102642.0;;;11.68;71.72
77749;BME280;66938;52.084;5.228;2023-05-29T01:50:45;102640.00000000001;;;11.72;71.34
77749;BME280;66938;52.084;5.228;2023-05-29T01:53:58;102638.00000000001;;;11.6;71.36
77749;BME280;66938;52.084;5.228;2023-05-29T01:55:34;102642.0;;;11.59;70.98
77749;BME280;66938;52.084;5.228;2023-05-29T01:57:11;102638.00000000001;;;11.55;70.95
77749;BME280;66938;52.084;5.228;2023-05-29T01:58:49;102642.0;;;11.56;70.69
77749;BME280;66938;52.084;5.228;2023-05-29T02:02:05;102646.0;;;11.57;70.91
77749;BME280;66938;52.084;5.228;2023-05-29T02:03:42;102644.0;;;11.58;71.72
77749;BME280;66938;52.084;5.228;2023-05-29T02:05:18;102649.0;;;11.55;71.36
77749;BME280;66938;52.084;5.228;2023-05-29T02:08:31;102657.0;;;11.47;71.33
77749;BME280;66938;52.084;5.228;2023-05-29T02:10:07;102658.0;;;11.44;71.16
77749;BME280;66938;52.084;5.228;2023-05-29T02:11:44;102656.0;;;11.42;71.48
77749;BME280;66938;52.084;5.228;2023-05-29T02:13:20;102655.0;;;11.33;72.63
77749;BME280;66938;52.084;5.228;2023-05-29T02:16:32;102657.0;;;11.37;72.17
77749;BME280;66938;52.084;5.228;2023-05-29T02:18:10;102651.0;;;11.34;72.19
77749;BME280;66938;52.084;5.228;2023-05-29T02:19:49;102649.0;;;11.4;71.97
77749;BME280;66938;52.084;5.228;2023-05-29T02:23:01;102643.0;;;11.34;72.23
77749;BME280;66938;52.084;5.228;2023-05-29T02:24:37;102633.99999999999;;;11.33;72.41
77749;BME280;66938;52.084;5.228;2023-05-29T02:26:13;102633.99999999999;;;11.37;72.23
77749;BME280;66938;52.084;5.228;2023-05-29T02:29:25;102633.0;;;11.32;72.39
77749;BME280;66938;52.084;5.228;2023-05-29T02:31:02;102639.00000000001;;;11.27;72.44
77749;BME280;66938;52.084;5.228;2023-05-29T02:32:39;102642.0;;;11.21;72.23
77749;BME280;66938;52.084;5.228;2023-05-29T02:34:15;102644.0;;;11.17;72.87
77749;BME280;66938;52.084;5.228;2023-05-29T02:37:27;102641.00000000001;;;11.25;72.36
77749;BME280;66938;52.084;5.228;2023-05-29T02:39:04;102647.0;;;11.14;72.27
77749;BME280;66938;52.084;5.228;2023-05-29T02:40:39;102644.0;;;11.2;72.11
77749;BME280;66938;52.084;5.228;2023-05-29T02:43:51;102647.0;;;11.11;72.8
77749;BME280;66938;52.084;5.228;2023-05-29T02:45:28;102648.0;;;11.07;73.06
77749;BME280;66938;52.084;5.228;2023-05-29T02:47:04;102646.0;;;11.07;72.78
77749;BME280;66938;52.084;5.228;2023-05-29T02:50:17;102649.0;;;11.08;72.55
77749;BME280;66938;52.084;5.228;2023-05-29T02:51:53;102645.0;;;11.03;72.72
77749;BME280;66938;52.084;5.228;2023-05-29T02:53:29;102651.0;;;11.08;72.61
77749;BME280;66938;52.084;5.228;2023-05-29T02:56:44;102654.0;;;11.08;72.33
77749;BME280;66938;52.084;5.228;2023-05-29T02:58:20;102652.0;;;11.08;72.83
77749;BME280;66938;52.084;5.228;2023-05-29T02:59:56;102647.0;;;11.09;72.05
77749;BME280;66938;52.084;5.228;2023-05-29T03:01:32;102643.0;;;11.1;72.06
77749;BME280;66938;52.084;5.228;2023-05-29T03:04:45;102645.0;;;11.05;72.49
77749;BME280;66938;52.084;5.228;2023-05-29T03:06:21;102652.0;;;11.03;72.62
77749;BME280;66938;52.084;5.228;2023-05-29T03:07:57;102655.0;;;10.95;73.72
77749;BME280;66938;52.084;5.228;2023-05-29T03:11:10;102663.00000000001;;;11.01;72.86
77749;BME280;66938;52.084;5.228;2023-05-29T03:12:46;102659.99999999999;;;10.95;72.36
77749;BME280;66938;52.084;5.228;2023-05-29T03:14:22;102657.0;;;10.97;72.42
77749;BME280;66938;52.084;5.228;2023-05-29T03:17:34;102657.0;;;10.89;72.97
77749;BME280;66938;52.084;5.228;2023-05-29T03:19:11;102656.0;;;10.9;72.53
77749;BME280;66938;52.084;5.228;2023-05-29T03:20:47;102652.0;;;10.88;72.94
77749;BME280;66938;52.084;5.228;2023-05-29T03:22:23;102650.0;;;10.86;73.27
77749;BME280;66938;52.084;5.228;2023-05-29T03:25:35;102644.0;;;10.82;73.83
77749;BME280;66938;52.084;5.228;2023-05-29T03:27:11;102642.0;;;10.86;73.83
77749;BME280;66938;52.084;5.228;2023-05-29T03:28:47;102641.00000000001;;;10.89;73.28
77749;BME280;66938;52.084;5.228;2023-05-29T03:32:00;102643.0;;;10.84;73.5
77749;BME280;66938;52.084;5.228;2023-05-29T03:33:36;102647.0;;;10.85;73.42
77749;BME280;66938;52.084;5.228;2023-05-29T03:35:12;102649.0;;;10.85;73.56
77749;BME280;66938;52.084;5.228;2023-05-29T03:38:23;102648.0;;;10.9;73.27
77749;BME280;66938;52.084;5.228;2023-05-29T03:39:59;102655.0;;;10.86;72.84
77749;BME280;66938;52.084;5.228;2023-05-29T03:41:35;102650.0;;;10.81;72.91
77749;BME280;66938;52.084;5.228;2023-05-29T03:44:48;102654.0;;;10.69;72.88
77749;BME280;66938;52.084;5.228;2023-05-29T03:46:24;102653.0;;;10.74;72.41
77749;BME280;66938;52.084;5.228;2023-05-29T03:48:00;102648.0;;;10.7;72.22
77749;BME280;66938;52.084;5.228;2023-05-29T03:49:36;102651.0;;;10.68;72.87
77749;BME280;66938;52.084;5.228;2023-05-29T03:52:48;102655.0;;;10.61;73.13
77749;BME280;66938;52.084;5.228;2023-05-29T03:54:25;102651.0;;;10.62;73.3
77749;BME280;66938;52.084;5.228;2023-05-29T03:56:01;102655.0;;;10.61;73.25
77749;BME280;66938;52.084;5.228;2023-05-29T03:59:13;102653.0;;;10.59;73.12
77749;BME280;66938;52.084;5.228;2023-05-29T04:00:49;102658.0;;;10.56;73.47
77749;BME280;66938;52.084;5.228;2023-05-29T04:02:25;102658.99999999999;;;10.53;73.33
77749;BME280;66938;52.084;5.228;2023-05-29T04:05:39;102657.0;;;10.58;73.22
77749;BME280;66938;52.084;5.228;2023-05-29T04:07:14;102653.0;;;10.55;73.72
77749;BME280;66938;52.084;5.228;2023-05-29T04:08:50;102657.0;;;10.57;73.33
77749;BME280;66938;52.084;5.228;2023-05-29T04:10:26;102658.99999999999;;;10.59;73.27
77749;BME280;66938;52.084;5.228;2023-05-29T04:13:40;102658.99999999999;;;10.56;73.39
77749;BME280;66938;52.084;5.228;2023-05-29T04:15:15;102665.00000000001;;;10.58;73.22
77749;BME280;66938;52.084;5.228;2023-05-29T04:16:52;102664.00000000001;;;10.56;73.77
77749;BME280;66938;52.084;5.228;2023-05-29T04:20:05;102664.00000000001;;;10.59;73.62
77749;BME280;66938;52.084;5.228;2023-05-29T04:21:41;102668.0;;;10.58;73.66
77749;BME280;66938;52.084;5.228;2023-05-29T04:23:17;102667.0;;;10.56;73.56
77749;BME280;66938;52.084;5.228;2023-05-29T04:26:29;102673.0;;;10.48;74.12
77749;BME280;66938;52.084;5.228;2023-05-29T04:28:06;102675.0;;;10.5;74.12
77749;BME280;66938;52.084;5.228;2023-05-29T04:29:42;102678.0;;;10.5;74.41
77749;BME280;66938;52.084;5.228;2023-05-29T04:32:54;102682.0;;;10.53;73.62
77749;BME280;66938;52.084;5.228;2023-05-29T04:34:30;102679.0;;;10.55;73.66
77749;BME280;66938;52.084;5.228;2023-05-29T04:36:07;102679.0;;;10.55;74.7
77749;BME280;66938;52.084;5.228;2023-05-29T04:37:42;102683.99999999999;;;10.59;74.17
77749;BME280;66938;52.084;5.228;2023-05-29T04:40:56;102684.99999999999;;;10.63;73.94
77749;BME280;66938;52.084;5.228;2023-05-29T04:42:32;102692.0;;;10.61;74.06
77749;BME280;66938;52.084;5.228;2023-05-29T04:44:08;102692.0;;;10.65;74.19
77749;BME280;66938;52.084;5.228;2023-05-29T04:47:20;102697.0;;;10.72;74.19
77749;BME280;66938;52.084;5.228;2023-05-29T04:48:56;102700.0;;;10.72;73.48
77749;BME280;66938;52.084;5.228;2023-05-29T04:50:32;102699.0;;;10.73;73.72
77749;BME280;66938;52.084;5.228;2023-05-29T04:53:44;102695.0;;;10.79;73.89
77749;BME280;66938;52.084;5.228;2023-05-29T04:55:20;102703.0;;;10.85;73.03
77749;BME280;66938;52.084;5.228;2023-05-29T04:56:56;102704.0;;;10.87;73.22
77749;BME280;66938;52.084;5.228;2023-05-29T04:58:32;102698.0;;;10.86;72.7
77749;BME280;66938;52.084;5.228;2023-05-29T05:01:45;102701.0;;;10.92;72.88
77749;BME280;66938;52.084;5.228;2023-05-29T05:03:21;102705.0;;;10.91;72.86
77749;BME280;66938;52.084;5.228;2023-05-29T05:04:58;102701.0;;;10.98;72.22
77749;BME280;66938;52.084;5.228;2023-05-29T05:08:10;102702.0;;;11.05;72.45
77749;BME280;66938;52.084;5.228;2023-05-29T05:09:46;102699.0;;;11.03;72.88
77749;BME280;66938;52.084;5.228;2023-05-29T05:11:23;102703.0;;;11.12;72.58
77749;BME280;66938;52.084;5.228;2023-05-29T05:14:35;102701.0;;;11.13;71.64
77749;BME280;66938;52.084;5.228;2023-05-29T05:16:12;102702.0;;;11.06;71.91
77749;BME280;66938;52.084;5.228;2023-05-29T05:17:48;102708.0;;;11.17;71.61
77749;BME280;66938;52.084;5.228;2023-05-29T05:21:00;102705.0;;;11.21;72.06
77749;BME280;66938;52.084;5.228;2023-05-29T05:22:36;102704.0;;;11.23;71.83
77749;BME280;66938;52.084;5.228;2023-05-29T05:24:12;102707.0;;;11.23;71.55
77749;BME280;66938;52.084;5.228;2023-05-29T05:25:49;102713.00000000001;;;11.29;71.59
77749;BME280;66938;52.084;5.228;2023-05-29T05:29:01;102705.0;;;11.34;71.28
77749;BME280;66938;52.084;5.228;2023-05-29T05:30:37;102699.0;;;11.35;71.47
77749;BME280;66938;52.084;5.228;2023-05-29T05:32:13;102703.0;;;11.41;71.41
77749;BME280;66938;52.084;5.228;2023-05-29T05:35:25;102705.0;;;11.48;71.27
77749;BME280;66938;52.084;5.228;2023-05-29T05:37:01;102701.0;;;11.47;71.27
77749;BME280;66938;52.084;5.228;2023-05-29T05:38:37;102708.0;;;11.49;71.02
77749;BME280;66938;52.084;5.228;2023-05-29T05:41:50;102704.0;;;11.53;71.0
77749;BME280;66938;52.084;5.228;2023-05-29T05:43:26;102708.99999999999;;;11.55;71.27
77749;BME280;66938;52.084;5.228;2023-05-29T05:45:02;102706.0;;;11.6;71.55
77749;BME280;66938;52.084;5.228;2023-05-29T05:46:39;102713.00000000001;;;11.7;70.89
77749;BME280;66938;52.084;5.228;2023-05-29T05:49:51;102713.00000000001;;;11.69;70.05
77749;BME280;66938;52.084;5.228;2023-05-29T05:51:27;102708.0;;;11.7;71.16
77749;BME280;66938;52.084;5.228;2023-05-29T05:53:04;102714.00000000001;;;11.74;70.66
77749;BME280;66938;52.084;5.228;2023-05-29T05:56:16;102717.0;;;11.85;70.22
77749;BME280;66938;52.084;5.228;2023-05-29T05:57:52;102725.0;;;11.88;70.05
77749;BME280;66938;52.084;5.228;2023-05-29T05:59:28;102723.0;;;11.97;69.44
77749;BME280;66938;52.084;5.228;2023-05-29T06:02:40;102719.0;;;12.03;69.47
77749;BME280;66938;52.084;5.228;2023-05-29T06:04:17;102730.0;;;12.09;69.25
77749;BME280;66938;52.084;5.228;2023-05-29T06:05:53;102724.0;;;12.1;69.44
77749;BME280;66938;52.084;5.228;2023-05-29T06:09:05;102729.0;;;12.13;70.16
77749;BME280;66938;52.084;5.228;2023-05-29T06:10:41;102724.0;;;12.17;70.38
77749;BME280;66938;52.084;5.228;2023-05-29T06:12:17;102727.0;;;12.24;69.78
77749;BME280;66938;52.084;5.228;2023-05-29T06:13:53;102725.0;;;12.27;69.13
77749;BME280;66938;52.084;5.228;2023-05-29T06:17:06;102723.0;;;12.31;68.72
77749;BME280;66938;52.084;5.228;2023-05-29T06:18:42;102722.0;;;12.3;68.72
77749;BME280;66938;52.084;5.228;2023-05-29T06:20:18;102724.0;;;12.34;68.44
77749;BME280;66938;52.084;5.228;2023-05-29T06:23:30;102728.0;;;12.4;67.99
77749;BME280;66938;52.084;5.228;2023-05-29T06:25:06;102727.0;;;12.4;68.27
77749;BME280;66938;52.084;5.228;2023-05-29T06:26:42;102733.99999999999;;;12.44;68.0
77749;BME280;66938;52.084;5.228;2023-05-29T06:29:55;102728.0;;;12.44;66.99
77749;BME280;66938;52.084;5.228;2023-05-29T06:31:31;102727.0;;;12.44;67.89
77749;BME280;66938;52.084;5.228;2023-05-29T06:33:07;102720.0;;;12.42;66.84
77749;BME280;66938;52.084;5.228;2023-05-29T06:36:19;102728.0;;;12.56;68.05
77749;BME280;66938;52.084;5.228;2023-05-29T06:37:55;102719.0;;;12.6;67.67
77749;BME280;66938;52.084;5.228;2023-05-29T06:39:32;102720.0;;;12.73;66.94
77749;BME280;66938;52.084;5.228;2023-05-29T06:41:08;102724.0;;;12.8;64.94
77749;BME280;66938;52.084;5.228;2023-05-29T06:44:20;102728.0;;;12.84;66.5
77749;BME280;66938;52.084;5.228;2023-05-29T06:45:56;102728.0;;;12.91;65.83
77749;BME280;66938;52.084;5.228;2023-05-29T06:47:32;102730.0;;;12.99;65.55
77749;BME280;66938;52.084;5.228;2023-05-29T06:50:45;102732.0;;;13.0;64.66
77749;BME280;66938;52.084;5.228;2023-05-29T06:52:21;102736.99999999999;;;12.97;65.7
77749;BME280;66938;52.084;5.228;2023-05-29T06:53:57;102738.00000000001;;;13.04;64.47
77749;BME280;66938;52.084;5.228;2023-05-29T06:57:09;102741.00000000001;;;13.14;63.95
77749;BME280;66938;52.084;5.228;2023-05-29T06:58:45;102744.0;;;13.22;63.22
77749;BME280;66938;52.084;5.228;2023-05-29T07:00:22;102742.0;;;13.3;64.37
77749;BME280;66938;52.084;5.228;2023-05-29T07:01:58;102738.00000000001;;;13.37;63.87
77749;BME280;66938;52.084;5.228;2023-05-29T07:05:10;102740.00000000001;;;13.41;64.1
77749;BME280;66938;52.084;5.228;2023-05-29T07:06:46;102731.0;;;13.45;63.51
77749;BME280;66938;52.084;5.228;2023-05-29T07:08:23;102733.99999999999;;;13.41;62.97
77749;BME280;66938;52.084;5.228;2023-05-29T07:11:35;102733.0;;;13.52;64.09
77749;BME280;66938;52.084;5.228;2023-05-29T07:13:15;102733.99999999999;;;13.59;63.88
77749;BME280;66938;52.084;5.228;2023-05-29T07:14:52;102736.99999999999;;;13.53;63.59
77749;BME280;66938;52.084;5.228;2023-05-29T07:18:04;102745.0;;;13.66;62.38
77749;BME280;66938;52.084;5.228;2023-05-29T07:19:40;102742.0;;;13.66;60.83
77749;BME280;66938;52.084;5.228;2023-05-29T07:21:16;102742.0;;;13.69;62.34
77749;BME280;66938;52.084;5.228;2023-05-29T07:22:53;102746.0;;;13.79;60.57
77749;BME280;66938;52.084;5.228;2023-05-29T07:26:06;102745.0;;;13.76;62.24
77749;BME280;66938;52.084;5.228;2023-05-29T07:27:42;102747.0;;;13.9;62.17
77749;BME280;66938;52.084;5.228;2023-05-29T07:29:18;102747.0;;;13.98;60.3
77749;BME280;66938;52.084;5.228;2023-05-29T07:32:30;102751.0;;;13.99;60.36
77749;BME280;66938;52.084;5.228;2023-05-29T07:34:06;102751.0;;;13.98;61.26
77749;BME280;66938;52.084;5.228;2023-05-29T07:35:42;102744.0;;;14.08;60.2
77749;BME280;66938;52.084;5.228;2023-05-29T07:38:55;102745.0;;;14.06;60.46
77749;BME280;66938;52.084;5.228;2023-05-29T07:40:31;102740.00000000001;;;14.1;60.39
77749;BME280;66938;52.084;5.228;2023-05-29T07:42:07;102741.00000000001;;;14.19;61.9
77749;BME280;66938;52.084;5.228;2023-05-29T07:45:19;102745.0;;;14.24;60.51
77749;BME280;66938;52.084;5.228;2023-05-29T07:46:55;102744.0;;;14.2;60.88
77749;BME280;66938;52.084;5.228;2023-05-29T07:48:31;102743.0;;;14.31;60.22
77749;BME280;66938;52.084;5.228;2023-05-29T07:50:08;102745.0;;;14.44;59.63
77749;BME280;66938;52.084;5.228;2023-05-29T07:53:21;102742.0;;;14.47;60.42
77749;BME280;66938;52.084;5.228;2023-05-29T07:54:57;102748.0;;;14.49;58.24
77749;BME280;66938;52.084;5.228;2023-05-29T07:56:33;102742.0;;;14.47;59.93
77749;BME280;66938;52.084;5.228;2023-05-29T07:59:45;102742.0;;;14.62;59.26
77749;BME280;66938;52.084;5.228;2023-05-29T08:01:21;102748.0;;;14.7;59.03
77749;BME280;66938;52.084;5.228;2023-05-29T08:02:58;102750.0;;;14.81;58.24
77749;BME280;66938;52.084;5.228;2023-05-29T08:06:10;102752.0;;;14.82;58.04
77749;BME280;66938;52.084;5.228;2023-05-29T08:07:46;102750.0;;;14.78;58.34
77749;BME280;66938;52.084;5.228;2023-05-29T08:09:22;102753.0;;;14.83;57.54
77749;BME280;66938;52.084;5.228;2023-05-29T08:12:34;102752.0;;;14.87;56.47
77749;BME280;66938;52.084;5.228;2023-05-29T08:14:11;102753.0;;;14.85;56.78
77749;BME280;66938;52.084;5.228;2023-05-29T08:15:47;102752.0;;;14.94;56.6
77749;BME280;66938;52.084;5.228;2023-05-29T08:17:23;102759.99999999999;;;14.97;57.3
77749;BME280;66938;52.084;5.228;2023-05-29T08:20:35;102754.0;;;15.04;58.43
77749;BME280;66938;52.084;5.228;2023-05-29T08:22:13;102756.0;;;15.11;58.62
77749;BME280;66938;52.084;5.228;2023-05-29T08:23:49;102756.0;;;15.09;58.86
77749;BME280;66938;52.084;5.228;2023-05-29T08:27:02;102758.99999999999;;;15.12;57.82
77749;BME280;66938;52.084;5.228;2023-05-29T08:28:38;102757.0;;;15.17;57.52
77749;BME280;66938;52.084;5.228;2023-05-29T08:30:14;102756.0;;;15.26;57.29
77749;BME280;66938;52.084;5.228;2023-05-29T08:33:27;102761.99999999999;;;15.29;56.73
77749;BME280;66938;52.084;5.228;2023-05-29T08:35:04;102757.0;;;15.33;56.53
77749;BME280;66938;52.084;5.228;2023-05-29T08:36:39;102758.99999999999;;;15.33;54.61
77749;BME280;66938;52.084;5.228;2023-05-29T08:38:15;102757.0;;;15.26;56.42
77749;BME280;66938;52.084;5.228;2023-05-29T08:41:31;102761.99999999999;;;15.3;55.04
77749;BME280;66938;52.084;5.228;2023-05-29T08:43:16;102758.99999999999;;;15.41;55.3
77749;BME280;66938;52.084;5.228;2023-05-29T08:44:56;102758.99999999999;;;15.36;55.11
77749;BME280;66938;52.084;5.228;2023-05-29T08:48:10;102766.00000000001;;;15.37;55.59
77749;BME280;66938;52.084;5.228;2023-05-29T08:49:52;102761.99999999999;;;15.41;55.34
77749;BME280;66938;52.084;5.228;2023-05-29T08:51:31;102767.0;;;15.42;55.12
77749;BME280;66938;52.084;5.228;2023-05-29T08:53:12;102768.0;;;15.52;54.42
77749;BME280;66938;52.084;5.228;2023-05-29T08:56:24;102761.99999999999;;;15.54;55.68
77749;BME280;66938;52.084;5.228;2023-05-29T08:58:00;102758.0;;;15.43;55.25
77749;BME280;66938;52.084;5.228;2023-05-29T08:59:41;102769.0;;;15.62;52.4
77749;BME280;66938;52.084;5.228;2023-05-29T09:01:18;102767.0;;;15.62;53.35
77749;BME280;66938;52.084;5.228;2023-05-29T09:04:30;102767.0;;;15.73;54.01
77749;BME280;66938;52.084;5.228;2023-05-29T09:06:06;102768.0;;;15.59;54.47
77749;BME280;66938;52.084;5.228;2023-05-29T09:07:42;102769.0;;;15.7;52.62
77749;BME280;66938;52.084;5.228;2023-05-29T09:10:55;102773.0;;;15.72;52.14
77749;BME280;66938;52.084;5.228;2023-05-29T09:12:32;102775.0;;;15.73;53.93
77749;BME280;66938;52.084;5.228;2023-05-29T09:14:11;102773.0;;;15.77;52.59
77749;BME280;66938;52.084;5.228;2023-05-29T09:16:07;102773.0;;;15.8;52.41
77749;BME280;66938;52.084;5.228;2023-05-29T09:19:19;102773.0;;;15.79;53.47
77749;BME280;66938;52.084;5.228;2023-05-29T09:20:55;102775.0;;;15.79;53.78
77749;BME280;66938;52.084;5.228;2023-05-29T09:22:32;102769.0;;;15.87;54.0
77749;BME280;66938;52.084;5.228;2023-05-29T09:25:44;102769.0;;;16.0;54.93
77749;BME280;66938;52.084;5.228;2023-05-29T09:27:27;102769.0;;;16.05;52.67
77749;BME280;66938;52.084;5.228;2023-05-29T09:29:03;102758.99999999999;;;16.11;51.74
77749;BME280;66938;52.084;5.228;2023-05-29T09:30:40;102766.00000000001;;;16.18;52.06
77749;BME280;66938;52.084;5.228;2023-05-29T09:33:54;102769.0;;;16.2;53.05
77749;BME280;66938;52.084;5.228;2023-05-29T09:35:34;102767.0;;;16.23;52.51
77749;BME280;66938;52.084;5.228;2023-05-29T09:37:12;102767.0;;;16.2;52.36
77749;BME280;66938;52.084;5.228;2023-05-29T09:40:25;102765.00000000001;;;16.29;52.08
77749;BME280;66938;52.084;5.228;2023-05-29T09:42:01;102763.00000000001;;;16.29;50.67
77749;BME280;66938;52.084;5.228;2023-05-29T09:43:38;102765.00000000001;;;16.32;52.06
77749;BME280;66938;52.084;5.228;2023-05-29T09:45:17;102767.0;;;16.37;52.93
77749;BME280;66938;52.084;5.228;2023-05-29T09:48:35;102763.00000000001;;;16.34;52.74
77749;BME280;66938;52.084;5.228;2023-05-29T09:50:18;102766.00000000001;;;16.45;52.35
77749;BME280;66938;52.084;5.228;2023-05-29T09:51:55;102757.0;;;16.36;51.03
77749;BME280;66938;52.084;5.228;2023-05-29T09:53:31;102759.99999999999;;;16.55;51.8
77749;BME280;66938;52.084;5.228;2023-05-29T09:56:44;102757.0;;;16.61;52.27
77749;BME280;66938;52.084;5.228;2023-05-29T09:58:22;102754.0;;;16.62;51.99
77749;BME280;66938;52.084;5.228;2023-05-29T09:59:58;102755.0;;;16.59;53.25
77749;BME280;66938;52.084;5.228;2023-05-29T10:03:15;102750.0;;;16.65;50.58
77749;BME280;66938;52.084;5.228;2023-05-29T10:04:51;102749.0;;;16.73;50.09
77749;BME280;66938;52.084;5.228;2023-05-29T10:06:28;102746.0;;;16.81;51.15
77749;BME280;66938;52.084;5.228;2023-05-29T10:09:45;102747.0;;;16.84;51.59
77749;BME280;66938;52.084;5.228;2023-05-29T10:11:23;102746.0;;;16.93;50.29
77749;BME280;66938;52.084;5.228;2023-05-29T10:13:01;102745.0;;;16.97;52.88
77749;BME280;66938;52.084;5.228;2023-05-29T10:14:38;102739.00000000001;;;17.09;50.09
77749;BME280;66938;52.084;5.228;2023-05-29T10:17:59;102745.0;;;17.18;50.73
77749;BME280;66938;52.084;5.228;2023-05-29T10:19:40;102749.0;;;17.31;50.57
77749;BME280;66938;52.084;5.228;2023-05-29T10:21:18;102746.0;;;17.29;50.71
77749;BME280;66938;52.084;5.228;2023-05-29T10:22:56;102743.0;;;17.29;49.49
77749;BME280;66938;52.084;5.228;2023-05-29T10:26:15;102742.0;;;17.43;48.9
77749;BME280;66938;52.084;5.228;2023-05-29T10:28:00;102743.0;;;17.34;48.76
77749;BME280;66938;52.084;5.228;2023-05-29T10:29:41;102752.0;;;17.45;48.4
77749;BME280;66938;52.084;5.228;2023-05-29T10:31:22;102750.0;;;17.38;47.24
77749;BME280;66938;52.084;5.228;2023-05-29T10:35:08;102750.0;;;17.41;47.4
77749;BME280;66938;52.084;5.228;2023-05-29T10:36:56;102744.0;;;17.38;47.18
77749;BME280;66938;52.084;5.228;2023-05-29T10:38:37;102742.0;;;17.39;48.6
77749;BME280;66938;52.084;5.228;2023-05-29T10:40:23;102744.0;;;17.52;47.11
77749;BME280;66938;52.084;5.228;2023-05-29T10:41:59;102733.0;;;17.52;48.02
77749;BME280;66938;52.084;5.228;2023-05-29T10:45:48;102731.0;;;17.55;48.78
77749;BME280;66938;52.084;5.228;2023-05-29T10:47:24;102733.0;;;17.59;48.63